createdAt,value
2022-09-07T00:02:30.068Z,100704.08
2022-09-07T00:05:01.967Z,100700.70
2022-09-07T00:07:33.868Z,100694.55
2022-09-07T00:10:06.233Z,100692.23
2022-09-07T00:12:38.119Z,100687.81
2022-09-07T00:15:12.969Z,100686.12
2022-09-07T00:17:44.819Z,100681.66
2022-09-07T00:20:16.806Z,100682.64
2022-09-07T00:22:49.087Z,100685.36
2022-09-07T00:25:21.035Z,100680.73
2022-09-07T00:27:52.909Z,100680.33
2022-09-07T00:30:24.751Z,100683.50
2022-09-07T00:32:56.579Z,100677.30
2022-09-07T00:35:28.541Z,100678.94
2022-09-07T00:38:00.369Z,100673.60
2022-09-07T00:40:32.482Z,100673.48
2022-09-07T00:43:04.546Z,100674.79
2022-09-07T00:45:36.418Z,100674.01
2022-09-07T00:48:13.745Z,100670.76
2022-09-07T00:50:48.998Z,100676.19
2022-09-07T00:53:24.967Z,100679.21
2022-09-07T00:55:57.898Z,100677.73
2022-09-07T00:58:32.025Z,100671.73
2022-09-07T01:01:04.487Z,100668.02
2022-09-07T01:03:42.223Z,100666.30
2022-09-07T01:06:17.908Z,100661.66
2022-09-07T01:08:51.646Z,100664.85
2022-09-07T01:11:24.985Z,100667.89
2022-09-07T01:13:58.192Z,100674.20
2022-09-07T01:16:42.933Z,100673.90
2022-09-07T01:19:37.098Z,100671.54
2022-09-07T01:22:30.203Z,100668.82
2022-09-07T01:25:08.318Z,100670.99
2022-09-07T01:28:06.975Z,100673.14
2022-09-07T01:30:42.064Z,100669.75
2022-09-07T01:33:29.754Z,100666.02
2022-09-07T01:36:12.621Z,100663.81
2022-09-07T01:38:47.531Z,100661.63
2022-09-07T01:41:40.136Z,100662.02
2022-09-07T01:44:18.241Z,100663.64
2022-09-07T01:46:57.973Z,100663.86
2022-09-07T01:49:36.335Z,100666.68
2022-09-07T01:52:12.835Z,100666.21
2022-09-07T01:54:51.140Z,100667.46
2022-09-07T01:57:28.629Z,100670.45
2022-09-07T02:00:08.683Z,100671.34
2022-09-07T02:02:52.757Z,100670.34
2022-09-07T02:05:28.529Z,100669.70
2022-09-07T02:08:07.438Z,100667.84
2022-09-07T02:10:42.169Z,100674.83
2022-09-07T02:13:19.116Z,100674.88
2022-09-07T02:15:51.880Z,100672.84
2022-09-07T02:18:26.025Z,100668.23
2022-09-07T02:21:00.780Z,100667.95
2022-09-07T02:23:38.417Z,100666.27
2022-09-07T02:26:16.445Z,100660.04
2022-09-07T02:28:48.853Z,100661.64
2022-09-07T02:31:20.987Z,100660.13
2022-09-07T02:33:53.116Z,100657.58
2022-09-07T02:36:27.570Z,100654.02
2022-09-07T02:38:59.542Z,100651.83
2022-09-07T02:41:37.219Z,100647.06
2022-09-07T02:44:14.136Z,100647.48
2022-09-07T02:47:07.005Z,100643.22
2022-09-07T02:49:57.257Z,100642.23
2022-09-07T02:52:41.126Z,100638.33
2022-09-07T02:55:27.123Z,100636.48
2022-09-07T02:58:10.509Z,100635.69
2022-09-07T03:00:50.229Z,100632.95
2022-09-07T03:03:30.714Z,100633.00
2022-09-07T03:06:05.956Z,100633.23
2022-09-07T03:08:42.839Z,100633.59
2022-09-07T03:11:14.295Z,100631.88
2022-09-07T03:13:46.140Z,100629.82
2022-09-07T03:16:18.640Z,100631.77
2022-09-07T03:18:50.967Z,100626.73
2022-09-07T03:21:22.861Z,100624.69
2022-09-07T03:23:55.238Z,100624.72
2022-09-07T03:26:27.354Z,100630.80
2022-09-07T03:28:59.511Z,100632.55
2022-09-07T03:31:32.914Z,100636.21
2022-09-07T03:34:05.374Z,100633.65
2022-09-07T03:36:37.650Z,100633.50
2022-09-07T03:39:09.819Z,100632.29
2022-09-07T03:41:42.261Z,100634.91
2022-09-07T03:44:14.253Z,100634.23
2022-09-07T03:46:46.148Z,100634.77
2022-09-07T03:49:19.140Z,100636.69
2022-09-07T03:51:50.996Z,100634.80
2022-09-07T03:54:23.392Z,100635.70
2022-09-07T03:56:55.292Z,100634.89
2022-09-07T03:59:27.448Z,100636.33
2022-09-07T04:01:59.338Z,100634.78
2022-09-07T04:04:31.296Z,100634.30
2022-09-07T04:07:03.890Z,100632.23
2022-09-07T04:09:35.796Z,100627.19
2022-09-07T04:12:08.029Z,100629.63
2022-09-07T04:14:40.029Z,100633.95
2022-09-07T04:17:14.778Z,100635.87
2022-09-07T04:19:46.565Z,100632.98
2022-09-07T04:22:18.501Z,100633.64
2022-09-07T04:24:50.293Z,100633.05
2022-09-07T04:27:22.181Z,100636.45
2022-09-07T04:29:53.987Z,100635.91
2022-09-07T04:32:25.912Z,100634.02
2022-09-07T04:34:57.721Z,100632.58
2022-09-07T04:37:30.121Z,100631.30
2022-09-07T04:40:02.054Z,100634.39
2022-09-07T04:42:34.048Z,100632.73
2022-09-07T04:45:06.396Z,100625.79
2022-09-07T04:47:40.504Z,100623.64
2022-09-07T04:50:13.034Z,100619.48
2022-09-07T04:52:45.109Z,100624.55
2022-09-07T04:55:17.437Z,100624.36
2022-09-07T04:57:51.311Z,100627.91
2022-09-07T05:00:23.417Z,100619.54
2022-09-07T05:02:55.339Z,100617.75
2022-09-07T05:05:27.197Z,100621.42
2022-09-07T05:07:59.096Z,100624.58
2022-09-07T05:10:31.026Z,100623.67
2022-09-07T05:13:03.261Z,100624.45
2022-09-07T05:15:35.104Z,100624.34
2022-09-07T05:18:07.159Z,100624.48
2022-09-07T05:20:38.987Z,100625.82
2022-09-07T05:23:10.992Z,100619.90
2022-09-07T05:25:47.708Z,100617.15
2022-09-07T05:28:19.771Z,100614.52
2022-09-07T05:36:41.048Z,100611.12
2022-09-07T05:39:12.952Z,100613.30
2022-09-07T05:41:44.809Z,100617.67
2022-09-07T05:47:09.355Z,100614.66
2022-09-07T05:49:41.420Z,100607.80
2022-09-07T05:52:13.467Z,100604.80
2022-09-07T05:54:45.473Z,100602.34
2022-09-07T05:57:17.399Z,100611.05
2022-09-07T05:59:49.350Z,100608.70
2022-09-07T06:02:21.641Z,100609.04
2022-09-07T06:04:53.871Z,100603.20
2022-09-07T06:07:25.695Z,100597.94
2022-09-07T06:12:50.069Z,100595.15
2022-09-07T06:15:22.070Z,100594.84
2022-09-07T06:17:54.381Z,100594.17
2022-09-07T06:20:26.277Z,100586.17
2022-09-07T06:22:58.154Z,100582.88
2022-09-07T06:25:30.045Z,100580.59
2022-09-07T06:28:02.282Z,100570.80
2022-09-07T06:30:34.454Z,100564.14
2022-09-07T06:33:06.421Z,100564.41
2022-09-07T06:35:38.574Z,100566.95
2022-09-07T06:38:10.673Z,100563.11
2022-09-07T06:40:44.081Z,100558.70
2022-09-07T06:43:15.972Z,100559.38
2022-09-07T06:45:55.367Z,100558.56
2022-09-07T06:48:27.969Z,100555.65
2022-09-07T06:51:01.814Z,100554.73
2022-09-07T06:53:37.627Z,100557.14
2022-09-07T06:56:14.018Z,100554.08
2022-09-07T06:58:46.410Z,100555.77
2022-09-07T07:01:20.700Z,100557.52
2022-09-07T07:03:54.348Z,100558.95
2022-09-07T07:06:33.793Z,100563.86
2022-09-07T07:09:06.951Z,100549.83
2022-09-07T07:11:38.917Z,100565.63
2022-09-07T07:14:12.624Z,100578.55
2022-09-07T07:16:45.006Z,100577.30
2022-09-07T07:19:17.398Z,100583.80
2022-09-07T07:22:10.774Z,100577.09
2022-09-07T07:24:41.164Z,100588.64
2022-09-07T07:27:13.064Z,100601.40
2022-09-07T07:29:45.915Z,100604.83
2022-09-07T07:32:18.292Z,100606.88
2022-09-07T07:34:50.357Z,100612.35
2022-09-07T07:37:27.401Z,100611.08
2022-09-07T07:40:17.426Z,100618.60
2022-09-07T07:42:51.882Z,100615.14
2022-09-07T07:48:15.797Z,100606.30
2022-09-07T07:50:57.709Z,100602.42
2022-09-07T07:53:45.933Z,100602.54
2022-09-07T07:56:18.340Z,100597.95
2022-09-07T07:58:52.747Z,100591.96
2022-09-07T08:01:24.973Z,100596.73
2022-09-07T08:03:56.807Z,100593.40
2022-09-07T08:06:28.722Z,100587.63
2022-09-07T08:09:00.544Z,100587.54
2022-09-07T08:11:32.479Z,100579.17
2022-09-07T08:14:06.783Z,100578.78
2022-09-07T08:16:38.751Z,100585.56
2022-09-07T08:19:10.775Z,100586.36
2022-09-07T08:21:42.657Z,100576.34
2022-09-07T08:24:15.063Z,100574.61
2022-09-07T08:26:48.362Z,100577.98
2022-09-07T08:29:23.231Z,100579.27
2022-09-07T08:31:55.551Z,100582.19
2022-09-07T08:34:27.541Z,100574.92
2022-09-07T08:36:59.778Z,100565.73
2022-09-07T08:39:31.729Z,100561.15
2022-09-07T08:42:27.894Z,100561.87
2022-09-07T08:45:04.108Z,100565.11
2022-09-07T08:47:42.312Z,100564.77
2022-09-07T08:50:19.755Z,100563.09
2022-09-07T08:52:56.674Z,100557.41
2022-09-07T08:55:33.480Z,100545.25
2022-09-07T08:58:22.213Z,100542.46
2022-09-07T09:04:17.225Z,100548.89
2022-09-07T09:07:05.224Z,100551.52
2022-09-07T09:09:56.191Z,100545.11
2022-09-07T09:12:37.684Z,100537.27
2022-09-07T09:15:21.571Z,100534.13
2022-09-07T09:18:04.079Z,100532.73
2022-09-07T09:20:42.922Z,100523.80
2022-09-07T09:23:17.107Z,100538.65
2022-09-07T09:25:54.783Z,100518.91
2022-09-07T09:28:28.954Z,100523.74
2022-09-07T09:31:05.090Z,100512.06
2022-09-07T09:33:37.518Z,100512.89
2022-09-07T09:36:32.657Z,100512.84
2022-09-07T09:39:27.617Z,100509.53
2022-09-07T09:42:03.202Z,100516.20
2022-09-07T09:44:38.464Z,100520.36
2022-09-07T09:47:30.272Z,100513.62
2022-09-07T09:50:06.916Z,100509.70
2022-09-07T09:52:49.203Z,100505.51
2022-09-07T09:55:34.952Z,100499.36
2022-09-07T10:01:28.140Z,100495.45
2022-09-07T10:04:20.289Z,100493.59
2022-09-07T10:06:56.315Z,100495.75
2022-09-07T10:09:37.849Z,100494.89
2022-09-07T10:12:24.158Z,100492.77
2022-09-07T10:14:56.723Z,100485.44
2022-09-07T10:17:34.403Z,100487.41
2022-09-07T10:20:34.907Z,100489.53
2022-09-07T10:23:20.079Z,100485.69
2022-09-07T10:25:52.225Z,100484.35
2022-09-07T10:29:06.019Z,100479.33
2022-09-07T10:31:23.020Z,100477.56
2022-09-07T10:37:03.208Z,100468.64
2022-09-07T10:39:38.862Z,100460.78
2022-09-07T10:42:26.214Z,100458.02
2022-09-07T10:45:07.454Z,100458.11
2022-09-07T10:47:50.072Z,100458.18
2022-09-07T10:50:31.063Z,100457.73
2022-09-07T10:53:40.603Z,100448.64
2022-09-07T10:56:15.948Z,100453.27
2022-09-07T10:59:02.217Z,100449.34
2022-09-07T11:01:44.705Z,100452.99
2022-09-07T11:04:38.535Z,100449.84
2022-09-07T11:07:23.558Z,100451.67
2022-09-07T11:10:01.331Z,100446.50
2022-09-07T11:12:38.296Z,100446.23
2022-09-07T11:15:20.111Z,100448.30
2022-09-07T11:17:57.272Z,100458.36
2022-09-07T11:20:34.428Z,100451.78
2022-09-07T11:23:15.589Z,100447.70
2022-09-07T11:25:58.690Z,100442.85
2022-09-07T11:28:38.156Z,100439.43
2022-09-07T11:31:20.691Z,100437.63
2022-09-07T11:37:02.332Z,100437.65
2022-09-07T11:39:40.362Z,100431.45
2022-09-07T11:45:20.883Z,100421.68
2022-09-07T11:47:59.291Z,100414.15
2022-09-07T11:50:35.304Z,100418.56
2022-09-07T11:53:15.364Z,100418.69
2022-09-07T11:55:51.144Z,100417.13
2022-09-07T11:58:38.865Z,100411.09
2022-09-07T12:01:25.389Z,100414.55
2022-09-07T12:04:17.626Z,100414.14
2022-09-07T12:07:03.344Z,100402.48
2022-09-07T12:09:54.257Z,100405.63
2022-09-07T12:12:42.240Z,100407.62
2022-09-07T12:15:27.091Z,100417.69
2022-09-07T12:18:14.073Z,100407.87
2022-09-07T12:20:47.619Z,100408.41
2022-09-07T12:23:28.998Z,100407.14
2022-09-07T12:26:50.122Z,100407.49
2022-09-07T12:29:25.662Z,100410.36
2022-09-07T12:32:07.384Z,100412.48
2022-09-07T12:34:54.494Z,100398.27
2022-09-07T12:37:41.992Z,100395.59
2022-09-07T12:40:50.230Z,100393.95
2022-09-07T12:44:02.006Z,100396.20
2022-09-07T12:46:53.029Z,100395.92
2022-09-07T12:49:58.595Z,100393.15
2022-09-07T12:52:53.421Z,100380.80
2022-09-07T12:58:58.112Z,100374.45
2022-09-07T13:01:44.945Z,100368.98
2022-09-07T13:04:42.661Z,100369.09
2022-09-07T13:07:36.623Z,100366.68
2022-09-07T13:10:27.135Z,100366.36
2022-09-07T13:13:04.909Z,100364.15
2022-09-07T13:15:42.028Z,100353.91
2022-09-07T13:18:35.949Z,100353.75
2022-09-07T13:21:36.326Z,100353.55
2022-09-07T13:24:47.413Z,100349.40
2022-09-07T13:27:44.673Z,100347.19
2022-09-07T13:30:27.623Z,100351.99
2022-09-07T13:33:30.136Z,100341.79
2022-09-07T13:36:05.052Z,100337.18
2022-09-07T13:38:42.841Z,100339.94
2022-09-07T13:41:20.049Z,100339.10
2022-09-07T13:43:59.626Z,100337.29
2022-09-07T13:46:55.304Z,100336.91
2022-09-07T13:49:47.017Z,100337.80
2022-09-07T13:52:24.801Z,100335.54
2022-09-07T13:55:27.234Z,100336.30
2022-09-07T13:58:12.246Z,100340.17
2022-09-07T14:00:55.418Z,100335.73
2022-09-07T14:03:31.438Z,100331.70
2022-09-07T14:06:31.263Z,100331.14
2022-09-07T14:09:05.791Z,100332.81
2022-09-07T14:11:46.414Z,100324.13
2022-09-07T14:14:21.393Z,100323.33
2022-09-07T14:17:02.447Z,100315.92
2022-09-07T14:19:41.757Z,100308.39
2022-09-07T14:22:17.822Z,100310.42
2022-09-07T14:24:53.590Z,100308.81
2022-09-07T14:27:27.771Z,100307.52
2022-09-07T14:30:18.225Z,100309.29
2022-09-07T14:32:52.483Z,100306.83
2022-09-07T14:35:26.962Z,100304.95
2022-09-07T14:38:05.866Z,100302.16
2022-09-07T14:40:38.110Z,100302.79
2022-09-07T14:43:30.289Z,100296.73
2022-09-07T14:46:19.797Z,100293.99
2022-09-07T14:48:55.273Z,100288.86
2022-09-07T14:51:35.515Z,100282.61
2022-09-07T14:54:10.585Z,100283.36
2022-09-07T14:56:43.776Z,100282.23
2022-09-07T14:59:42.604Z,100281.64
2022-09-07T15:02:37.068Z,100279.98
2022-09-07T15:05:29.833Z,100283.80
2022-09-07T15:08:03.376Z,100273.90
2022-09-07T15:10:41.202Z,100270.83
2022-09-07T15:13:32.252Z,100267.70
2022-09-07T15:16:06.805Z,100271.38
2022-09-07T15:18:55.804Z,100270.59
2022-09-07T15:21:29.331Z,100272.08
2022-09-07T15:24:03.903Z,100273.49
2022-09-07T15:29:34.877Z,100274.23
2022-09-07T15:32:12.465Z,100271.96
2022-09-07T15:34:44.307Z,100272.22
2022-09-07T15:40:17.729Z,100270.70
2022-09-07T15:43:16.384Z,100273.31
2022-09-07T15:45:41.472Z,100271.90
2022-09-07T15:48:17.369Z,100276.56
2022-09-07T15:50:49.681Z,100281.28
2022-09-07T15:56:13.693Z,100281.13
2022-09-07T15:58:45.725Z,100278.71
2022-09-07T16:04:13.713Z,100273.67
2022-09-07T16:06:48.123Z,100277.00
2022-09-07T16:09:21.699Z,100269.09
2022-09-07T16:11:54.116Z,100273.39
2022-09-07T16:14:26.286Z,100272.83
2022-09-07T16:19:50.191Z,100267.05
2022-09-07T16:25:14.611Z,100259.94
2022-09-07T16:27:46.545Z,100254.67
2022-09-07T16:30:18.647Z,100253.29
2022-09-07T16:32:50.907Z,100254.67
2022-09-07T16:35:23.119Z,100256.39
2022-09-07T16:40:48.490Z,100248.12
2022-09-07T16:43:20.569Z,100244.39
2022-09-07T16:46:04.470Z,100244.41
2022-09-07T16:48:37.471Z,100251.69
2022-09-07T16:51:10.702Z,100254.55
2022-09-07T16:53:43.131Z,100256.27
2022-09-07T16:56:17.156Z,100251.83
2022-09-07T16:58:51.422Z,100253.27
2022-09-07T17:01:26.246Z,100253.83
2022-09-07T17:03:58.347Z,100253.41
2022-09-07T17:06:32.083Z,100255.81
2022-09-07T17:09:05.022Z,100252.58
2022-09-07T17:11:38.552Z,100251.66
2022-09-07T17:14:10.549Z,100254.15
2022-09-07T17:16:43.158Z,100258.64
2022-09-07T17:19:31.857Z,100258.86
2022-09-07T17:22:04.307Z,100263.50
2022-09-07T17:24:36.420Z,100259.98
2022-09-07T17:27:08.457Z,100262.70
2022-09-07T17:29:40.566Z,100265.44
2022-09-07T17:32:27.825Z,100266.02
2022-09-07T17:35:00.568Z,100269.33
2022-09-07T17:37:33.775Z,100270.80
2022-09-07T17:40:07.499Z,100273.23
2022-09-07T17:45:33.727Z,100278.77
2022-09-07T17:48:05.870Z,100285.27
2022-09-07T17:50:37.678Z,100283.38
2022-09-07T17:53:09.745Z,100293.00
2022-09-07T17:55:41.701Z,100289.90
2022-09-07T17:58:14.014Z,100287.10
2022-09-07T18:00:46.653Z,100285.06
2022-09-07T18:03:19.094Z,100286.59
2022-09-07T18:05:55.814Z,100283.39
2022-09-07T18:08:28.664Z,100285.10
2022-09-07T18:13:59.967Z,100288.44
2022-09-07T18:16:34.378Z,100285.13
2022-09-07T18:19:08.674Z,100281.96
2022-09-07T18:21:42.477Z,100282.48
2022-09-07T18:24:17.856Z,100285.35
2022-09-07T18:26:52.562Z,100282.30
2022-09-07T18:29:29.940Z,100279.62
2022-09-07T18:32:09.409Z,100278.23
2022-09-07T18:34:45.874Z,100282.13
2022-09-07T18:37:21.735Z,100283.54
2022-09-07T18:39:54.598Z,100278.63
2022-09-07T18:42:26.617Z,100279.33
2022-09-07T18:47:50.314Z,100278.14
2022-09-07T18:50:23.299Z,100279.84
2022-09-07T18:53:04.164Z,100278.82
2022-09-07T18:55:46.172Z,100275.20
2022-09-07T18:58:19.332Z,100279.77
2022-09-07T19:00:57.683Z,100281.39
2022-09-07T19:03:29.723Z,100282.29
2022-09-07T19:06:03.879Z,100280.65
2022-09-07T19:08:37.506Z,100280.77
2022-09-07T19:11:10.778Z,100284.45
2022-09-07T19:13:42.655Z,100288.60
2022-09-07T19:16:17.163Z,100282.02
2022-09-07T19:18:50.231Z,100281.08
2022-09-07T19:21:24.246Z,100280.31
2022-09-07T19:24:01.963Z,100275.31
2022-09-07T19:26:36.526Z,100279.63
2022-09-07T19:29:15.734Z,100280.83
2022-09-07T19:32:04.163Z,100280.44
2022-09-07T19:34:39.343Z,100277.02
2022-09-07T19:37:12.986Z,100281.77
2022-09-07T19:39:45.023Z,100281.90
2022-09-07T19:42:17.113Z,100282.72
2022-09-07T19:44:49.107Z,100282.20
2022-09-07T19:47:21.167Z,100280.50
2022-09-07T19:49:53.464Z,100284.73
2022-09-07T19:52:25.596Z,100285.80
2022-09-07T19:55:00.402Z,100286.13
2022-09-07T19:57:32.589Z,100288.27
2022-09-07T20:00:05.439Z,100286.02
2022-09-07T20:02:43.997Z,100285.64
2022-09-07T20:05:16.882Z,100284.55
2022-09-07T20:07:48.732Z,100290.35
2022-09-07T20:10:20.641Z,100289.98
2022-09-07T20:12:52.631Z,100291.39
2022-09-07T20:15:24.713Z,100290.65
2022-09-07T20:17:56.609Z,100293.42
2022-09-07T20:20:28.489Z,100288.90
2022-09-07T20:23:00.286Z,100287.49
2022-09-07T20:25:32.117Z,100288.39
2022-09-07T20:28:04.178Z,100287.80
2022-09-07T20:30:36.068Z,100289.36
2022-09-07T20:33:07.888Z,100284.93
2022-09-07T20:35:43.663Z,100282.83
2022-09-07T20:38:17.186Z,100281.98
2022-09-07T20:40:57.318Z,100281.40
2022-09-07T20:43:30.792Z,100282.81
2022-09-07T20:46:02.952Z,100283.73
2022-09-07T20:48:35.103Z,100282.33
2022-09-07T20:51:09.572Z,100280.44
2022-09-07T20:53:42.088Z,100278.73
2022-09-07T20:56:15.621Z,100285.89
2022-09-07T20:58:48.647Z,100288.73
2022-09-07T21:01:21.318Z,100290.08
2022-09-07T21:03:55.017Z,100293.42
2022-09-07T21:06:28.765Z,100296.77
2022-09-07T21:09:01.134Z,100292.44
2022-09-07T21:11:35.281Z,100290.51
2022-09-07T21:14:08.839Z,100292.08
2022-09-07T21:16:41.341Z,100292.45
2022-09-07T21:19:13.189Z,100286.98
2022-09-07T21:21:45.602Z,100289.75
2022-09-07T21:24:20.845Z,100298.48
2022-09-07T21:26:53.731Z,100301.61
2022-09-07T21:29:26.650Z,100300.91
2022-09-07T21:31:58.479Z,100293.70
2022-09-07T21:34:30.334Z,100296.66
2022-09-07T21:37:02.135Z,100301.67
2022-09-07T21:39:34.248Z,100301.99
2022-09-07T21:42:06.483Z,100307.20
2022-09-07T21:44:38.441Z,100309.11
2022-09-07T21:47:10.305Z,100307.88
2022-09-07T21:49:44.556Z,100308.54
2022-09-07T21:52:16.430Z,100302.89
2022-09-07T21:54:48.273Z,100299.54
2022-09-07T21:57:20.062Z,100293.05
2022-09-07T21:59:51.840Z,100290.77
2022-09-07T22:02:23.946Z,100290.91
2022-09-07T22:04:55.960Z,100293.42
2022-09-07T22:07:27.845Z,100295.64
2022-09-07T22:09:59.610Z,100292.56
2022-09-07T22:12:31.483Z,100291.95
2022-09-07T22:15:03.965Z,100289.84
2022-09-07T22:17:35.822Z,100286.30
2022-09-07T22:20:09.644Z,100285.73
2022-09-07T22:22:41.438Z,100286.70
2022-09-07T22:25:13.382Z,100284.38
2022-09-07T22:27:45.184Z,100281.01
2022-09-07T22:30:17.589Z,100279.55
2022-09-07T22:32:50.537Z,100275.48
2022-09-07T22:35:22.728Z,100278.70
2022-09-07T22:37:54.785Z,100278.32
2022-09-07T22:40:26.610Z,100278.92
2022-09-07T22:42:58.417Z,100276.73
2022-09-07T22:45:30.318Z,100277.48
2022-09-07T22:48:02.514Z,100281.77
2022-09-07T22:50:34.894Z,100283.39
2022-09-07T22:53:06.669Z,100286.29
2022-09-07T22:55:42.048Z,100286.26
2022-09-07T22:58:13.917Z,100282.05
2022-09-07T23:00:47.019Z,100287.23
2022-09-07T23:03:19.541Z,100286.69
2022-09-07T23:05:51.432Z,100286.84
2022-09-07T23:08:23.299Z,100286.28
2022-09-07T23:10:55.683Z,100290.34
2022-09-07T23:13:27.837Z,100291.50
2022-09-07T23:16:03.389Z,100292.91
2022-09-07T23:18:36.125Z,100286.80
2022-09-07T23:21:08.393Z,100283.45
2022-09-07T23:23:40.460Z,100284.64
2022-09-07T23:26:12.425Z,100280.83
2022-09-07T23:28:44.240Z,100282.07
2022-09-07T23:31:16.067Z,100276.98
2022-09-07T23:33:47.933Z,100270.33
2022-09-07T23:36:20.563Z,100270.96
2022-09-07T23:38:54.556Z,100266.52
2022-09-07T23:41:27.570Z,100265.89
2022-09-07T23:43:59.858Z,100261.77
2022-09-07T23:46:31.860Z,100264.28
2022-09-07T23:49:03.811Z,100268.70
2022-09-07T23:51:36.100Z,100267.35
2022-09-07T23:54:08.240Z,100263.75
2022-09-07T23:56:40.077Z,100269.41
2022-09-07T23:59:12.649Z,100269.50
